createdAt,value
2023-03-17T00:01:08.435Z,39.83
2023-03-17T00:03:43.540Z,39.43
2023-03-17T00:06:27.421Z,40.01
2023-03-17T00:09:00.328Z,39.64
2023-03-17T00:11:32.880Z,39.84
2023-03-17T00:14:05.656Z,39.86
2023-03-17T00:16:43.054Z,40.41
2023-03-17T00:19:21.666Z,40.29
2023-03-17T00:21:54.953Z,39.60
2023-03-17T00:24:29.109Z,39.78
2023-03-17T00:27:02.412Z,40.43
2023-03-17T00:29:34.925Z,40.33
2023-03-17T00:32:17.773Z,39.76
2023-03-17T00:34:52.016Z,40.12
2023-03-17T00:37:24.884Z,40.35
2023-03-17T00:39:57.379Z,39.49
2023-03-17T00:42:30.418Z,40.53
2023-03-17T00:45:03.550Z,40.54
2023-03-17T00:47:36.412Z,39.78
2023-03-17T00:50:19.932Z,40.82
2023-03-17T00:52:56.837Z,39.46
2023-03-17T00:55:29.553Z,39.95
2023-03-17T00:58:02.998Z,40.35
2023-03-17T01:00:35.583Z,39.70
2023-03-17T01:03:12.923Z,39.97
2023-03-17T01:05:46.240Z,40.05
2023-03-17T01:08:19.902Z,39.61
2023-03-17T01:10:53.084Z,40.70
2023-03-17T01:13:26.427Z,40.35
2023-03-17T01:15:59.227Z,39.71
2023-03-17T01:18:32.757Z,40.10
2023-03-17T01:21:05.626Z,40.55
2023-03-17T01:23:39.008Z,40.02
2023-03-17T01:26:11.688Z,40.23
2023-03-17T01:28:44.478Z,40.23
2023-03-17T01:31:17.475Z,40.09
2023-03-17T01:33:51.302Z,40.64
2023-03-17T01:36:24.046Z,40.40
2023-03-17T01:38:57.263Z,39.64
2023-03-17T01:41:34.878Z,40.33
2023-03-17T01:44:15.853Z,40.35
2023-03-17T01:46:49.597Z,39.98
2023-03-17T01:49:31.902Z,40.78
2023-03-17T01:52:16.686Z,40.33
2023-03-17T01:55:06.903Z,39.71
2023-03-17T01:57:46.882Z,40.88
2023-03-17T02:00:24.184Z,40.65
2023-03-17T02:02:57.508Z,40.86
2023-03-17T02:05:32.614Z,40.67
2023-03-17T02:08:14.654Z,40.32
2023-03-17T02:10:50.513Z,39.81
2023-03-17T02:13:24.244Z,39.82
2023-03-17T02:15:57.177Z,40.07
2023-03-17T02:18:29.774Z,40.15
2023-03-17T02:21:31.749Z,39.81
2023-03-17T02:24:18.895Z,40.43
2023-03-17T02:26:54.447Z,40.11
2023-03-17T02:29:27.795Z,40.47
2023-03-17T02:32:01.175Z,39.94
2023-03-17T02:34:34.372Z,40.05
2023-03-17T02:37:07.909Z,39.76
2023-03-17T02:39:40.929Z,39.92
2023-03-17T02:42:14.366Z,41.01
2023-03-17T02:44:47.347Z,40.75
2023-03-17T02:47:20.690Z,41.03
2023-03-17T02:49:54.115Z,40.77
2023-03-17T02:52:27.023Z,40.13
2023-03-17T02:54:59.543Z,40.62
2023-03-17T02:57:32.224Z,40.86
2023-03-17T03:00:05.412Z,40.18
2023-03-17T03:02:39.019Z,40.61
2023-03-17T03:05:11.584Z,40.86
2023-03-17T03:07:44.373Z,40.44
2023-03-17T03:10:25.916Z,40.60
2023-03-17T03:12:58.555Z,40.37
2023-03-17T03:15:31.273Z,41.18
2023-03-17T03:18:03.951Z,40.40
2023-03-17T03:20:36.792Z,40.37
2023-03-17T03:23:09.443Z,40.26
2023-03-17T03:25:42.725Z,40.14
2023-03-17T03:28:15.439Z,40.67
2023-03-17T03:30:48.075Z,40.29
2023-03-17T03:33:20.755Z,40.45
2023-03-17T03:35:53.692Z,40.66
2023-03-17T03:38:27.600Z,40.33
2023-03-17T03:41:00.196Z,39.94
2023-03-17T03:43:32.851Z,41.21
2023-03-17T03:46:05.706Z,40.96
2023-03-17T03:48:38.449Z,40.51
2023-03-17T03:51:11.165Z,40.95
2023-03-17T03:53:44.397Z,40.72
2023-03-17T03:56:17.157Z,40.72
2023-03-17T03:58:50.295Z,40.65
2023-03-17T04:01:23.092Z,40.17
2023-03-17T04:03:55.668Z,40.10
2023-03-17T04:06:28.321Z,40.73
2023-03-17T04:09:00.981Z,40.49
2023-03-17T04:11:33.504Z,40.73
2023-03-17T04:14:06.649Z,40.47
2023-03-17T04:16:42.207Z,40.06
2023-03-17T04:19:16.414Z,40.34
2023-03-17T04:21:49.580Z,41.11
2023-03-17T04:24:22.254Z,40.85
2023-03-17T04:26:55.195Z,40.29
2023-03-17T04:29:28.462Z,41.03
2023-03-17T04:32:01.579Z,41.10
2023-03-17T04:34:34.126Z,40.26
2023-03-17T04:37:08.142Z,40.32
2023-03-17T04:39:40.659Z,40.47
2023-03-17T04:42:13.349Z,41.22
2023-03-17T04:44:46.268Z,40.97
2023-03-17T04:47:18.830Z,40.54
2023-03-17T04:49:51.490Z,40.54
2023-03-17T04:52:24.495Z,40.78
2023-03-17T04:54:57.554Z,41.03
2023-03-17T04:57:30.269Z,40.29
2023-03-17T05:00:06.203Z,40.98
2023-03-17T05:02:39.121Z,40.79
2023-03-17T05:05:13.217Z,40.90
2023-03-17T05:07:46.056Z,40.06
2023-03-17T05:10:18.758Z,40.38
2023-03-17T05:12:51.847Z,40.78
2023-03-17T05:15:24.550Z,40.54
2023-03-17T05:17:57.183Z,40.86
2023-03-17T05:20:30.272Z,41.17
2023-03-17T05:23:10.940Z,40.58
2023-03-17T05:25:44.209Z,40.80
2023-03-17T05:28:20.910Z,40.44
2023-03-17T05:30:54.366Z,41.15
2023-03-17T05:33:27.663Z,41.12
2023-03-17T05:36:00.288Z,40.31
2023-03-17T05:38:33.081Z,40.30
2023-03-17T05:41:05.750Z,41.14
2023-03-17T05:43:39.447Z,41.24
2023-03-17T05:46:12.231Z,41.13
2023-03-17T05:48:44.989Z,40.32
2023-03-17T05:51:17.720Z,40.72
2023-03-17T05:53:50.381Z,40.81
2023-03-17T05:56:23.160Z,41.00
2023-03-17T05:58:55.873Z,41.15
2023-03-17T06:01:29.608Z,40.30
2023-03-17T06:04:02.448Z,40.81
2023-03-17T06:06:34.998Z,40.33
2023-03-17T06:09:08.426Z,40.97
2023-03-17T06:11:41.748Z,41.34
2023-03-17T06:14:14.636Z,40.62
2023-03-17T06:16:47.397Z,40.95
2023-03-17T06:19:20.124Z,40.54
2023-03-17T06:21:55.248Z,40.59
2023-03-17T06:24:27.754Z,41.13
2023-03-17T06:27:01.515Z,40.91
2023-03-17T06:29:34.102Z,40.50
2023-03-17T06:32:19.878Z,41.45
2023-03-17T06:34:53.813Z,40.57
2023-03-17T06:37:26.480Z,40.79
2023-03-17T06:40:00.866Z,41.08
2023-03-17T06:42:33.448Z,41.10
2023-03-17T06:45:06.843Z,40.97
2023-03-17T06:47:39.899Z,40.61
2023-03-17T06:50:12.717Z,40.61
2023-03-17T06:52:46.913Z,40.84
2023-03-17T06:55:19.731Z,40.02
2023-03-17T06:57:52.523Z,40.64
2023-03-17T07:00:25.144Z,40.18
2023-03-17T07:02:57.815Z,40.89
2023-03-17T07:05:32.094Z,40.46
2023-03-17T07:08:06.193Z,40.38
2023-03-17T07:10:41.262Z,40.30
2023-03-17T07:13:13.814Z,40.20
2023-03-17T07:15:46.604Z,40.35
2023-03-17T07:18:19.876Z,40.55
2023-03-17T07:20:52.589Z,40.17
2023-03-17T07:23:25.937Z,40.55
2023-03-17T07:26:01.371Z,39.82
2023-03-17T07:28:34.101Z,40.16
2023-03-17T07:31:09.688Z,39.50
2023-03-17T07:33:42.497Z,40.48
2023-03-17T07:36:15.911Z,39.64
2023-03-17T07:38:48.588Z,39.81
2023-03-17T07:41:22.163Z,39.46
2023-03-17T07:43:57.340Z,39.88
2023-03-17T07:46:30.405Z,39.93
2023-03-17T07:49:03.141Z,40.18
2023-03-17T07:51:36.344Z,39.70
2023-03-17T07:54:14.815Z,39.87
2023-03-17T07:56:47.591Z,38.96
2023-03-17T07:59:20.682Z,39.21
2023-03-17T08:01:53.409Z,39.82
2023-03-17T08:04:27.473Z,39.42
2023-03-17T08:06:59.940Z,38.84
2023-03-17T08:09:32.967Z,39.17
2023-03-17T08:12:07.383Z,39.03
2023-03-17T08:14:41.396Z,39.32
2023-03-17T08:17:14.183Z,39.81
2023-03-17T08:19:47.109Z,39.15
2023-03-17T08:22:19.900Z,39.49
2023-03-17T08:24:52.512Z,39.47
2023-03-17T08:27:25.126Z,38.73
2023-03-17T08:29:57.818Z,39.29
2023-03-17T08:32:37.990Z,39.58
2023-03-17T08:35:16.787Z,39.10
2023-03-17T08:37:49.360Z,38.69
2023-03-17T08:40:22.434Z,39.04
2023-03-17T08:42:55.177Z,38.90
2023-03-17T08:45:27.844Z,39.52
2023-03-17T08:48:01.269Z,38.99
2023-03-17T08:50:34.828Z,39.25
2023-03-17T08:53:08.876Z,38.55
2023-03-17T08:55:41.532Z,39.20
2023-03-17T08:58:14.590Z,38.81
2023-03-17T09:00:47.228Z,38.76
2023-03-17T09:03:21.160Z,38.59
2023-03-17T09:05:54.753Z,38.59
2023-03-17T09:08:28.061Z,38.39
2023-03-17T09:11:03.578Z,38.30
2023-03-17T09:13:37.881Z,39.07
2023-03-17T09:16:10.745Z,38.55
2023-03-17T09:18:45.343Z,38.68
2023-03-17T09:21:18.715Z,39.25
2023-03-17T09:23:51.290Z,39.11
2023-03-17T09:26:25.640Z,38.34
2023-03-17T09:28:58.624Z,38.52
2023-03-17T09:31:32.941Z,38.75
2023-03-17T09:34:06.228Z,38.49
2023-03-17T09:36:39.265Z,38.55
2023-03-17T09:39:11.979Z,39.08
2023-03-17T09:42:14.651Z,38.62
2023-03-17T09:45:20.028Z,38.42
2023-03-17T09:48:11.186Z,38.58
2023-03-17T09:50:52.642Z,39.33
2023-03-17T09:53:34.619Z,38.98
2023-03-17T09:56:17.269Z,38.24
2023-03-17T09:59:06.548Z,38.92
2023-03-17T10:01:43.360Z,38.56
2023-03-17T10:04:19.000Z,38.81
2023-03-17T10:07:04.502Z,38.69
2023-03-17T10:09:53.535Z,39.00
2023-03-17T10:12:47.058Z,38.91
2023-03-17T10:15:46.303Z,38.45
2023-03-17T10:18:28.200Z,39.06
2023-03-17T10:21:06.039Z,39.18
2023-03-17T10:23:39.429Z,39.23
2023-03-17T10:26:26.416Z,39.34
2023-03-17T10:29:04.278Z,39.35
2023-03-17T10:31:37.987Z,39.48
2023-03-17T10:34:23.834Z,38.84
2023-03-17T10:37:00.941Z,38.75
2023-03-17T10:39:46.190Z,39.05
2023-03-17T10:42:26.527Z,39.27
2023-03-17T10:45:13.775Z,39.32
2023-03-17T10:47:50.153Z,38.99
2023-03-17T10:50:33.487Z,38.96
2023-03-17T10:53:29.104Z,38.91
2023-03-17T10:56:20.373Z,39.10
2023-03-17T10:58:55.663Z,38.87
2023-03-17T11:01:38.715Z,39.31
2023-03-17T11:04:37.705Z,39.07
2023-03-17T11:07:18.198Z,39.40
2023-03-17T11:09:57.047Z,38.73
2023-03-17T11:12:39.337Z,39.11
2023-03-17T11:15:17.776Z,39.45
2023-03-17T11:17:57.577Z,39.16
2023-03-17T11:21:19.606Z,38.28
2023-03-17T11:24:15.902Z,38.93
2023-03-17T11:27:22.855Z,38.58
2023-03-17T11:30:10.935Z,39.58
2023-03-17T11:33:22.078Z,39.43
2023-03-17T11:35:59.373Z,39.09
2023-03-17T11:38:47.954Z,38.84
2023-03-17T11:41:58.468Z,39.26
2023-03-17T11:44:49.631Z,39.26
2023-03-17T11:48:04.250Z,39.37
2023-03-17T11:51:27.592Z,38.83
2023-03-17T11:54:25.915Z,39.10
2023-03-17T11:57:03.209Z,39.05
2023-03-17T11:59:52.960Z,39.11
2023-03-17T12:02:38.779Z,39.70
2023-03-17T12:05:26.061Z,39.08
2023-03-17T12:08:26.545Z,39.25
2023-03-17T12:11:05.856Z,39.14
2023-03-17T12:13:51.741Z,39.18
2023-03-17T12:16:39.089Z,39.18
2023-03-17T12:19:27.960Z,39.67
2023-03-17T12:22:22.764Z,39.41
2023-03-17T12:25:13.014Z,38.84
2023-03-17T12:28:07.050Z,39.49
2023-03-17T12:31:09.341Z,39.55
2023-03-17T12:34:39.079Z,39.69
2023-03-17T12:37:12.164Z,38.90
2023-03-17T12:40:07.302Z,39.31
2023-03-17T12:42:54.924Z,38.95
2023-03-17T12:46:16.883Z,39.73
2023-03-17T12:49:45.319Z,39.37
2023-03-17T12:52:48.764Z,39.24
2023-03-17T12:55:28.047Z,39.65
2023-03-17T12:58:18.408Z,39.40
2023-03-17T13:01:32.449Z,39.53
2023-03-17T13:04:35.602Z,39.05
2023-03-17T13:07:27.719Z,39.15
2023-03-17T13:10:03.123Z,39.47
2023-03-17T13:12:44.492Z,39.80
2023-03-17T13:15:26.923Z,39.14
2023-03-17T13:18:14.487Z,39.50
2023-03-17T13:21:16.260Z,39.65
2023-03-17T13:24:18.555Z,39.24
2023-03-17T13:26:57.343Z,39.34
2023-03-17T13:29:32.741Z,39.40
2023-03-17T13:32:17.249Z,39.63
2023-03-17T13:35:15.949Z,39.53
2023-03-17T13:38:03.353Z,39.86
2023-03-17T13:40:53.652Z,39.14
2023-03-17T13:43:50.963Z,39.12
2023-03-17T13:46:42.847Z,39.26
2023-03-17T13:49:18.497Z,39.67
2023-03-17T13:52:08.415Z,39.38
2023-03-17T13:54:48.996Z,39.24
2023-03-17T13:57:38.070Z,39.42
2023-03-17T14:00:17.233Z,39.50
2023-03-17T14:03:02.096Z,39.84
2023-03-17T14:05:38.004Z,39.44
2023-03-17T14:08:29.830Z,39.59
2023-03-17T14:11:24.334Z,39.37
2023-03-17T14:14:32.683Z,39.66
2023-03-17T14:17:20.402Z,39.85
2023-03-17T14:20:20.329Z,39.88
2023-03-17T14:22:58.710Z,39.59
2023-03-17T14:25:36.230Z,39.79
2023-03-17T14:28:17.271Z,39.57
2023-03-17T14:30:59.544Z,40.02
2023-03-17T14:33:40.881Z,39.25
2023-03-17T14:36:14.705Z,39.65
2023-03-17T14:38:52.893Z,39.12
2023-03-17T14:41:28.638Z,39.62
2023-03-17T14:44:02.304Z,39.07
2023-03-17T14:46:38.977Z,39.71
2023-03-17T14:49:21.235Z,39.98
2023-03-17T14:51:54.187Z,39.56
2023-03-17T14:54:35.206Z,39.62
2023-03-17T14:57:15.758Z,39.82
2023-03-17T15:00:22.687Z,39.54
2023-03-17T15:02:57.902Z,40.01
2023-03-17T15:05:39.975Z,39.80
2023-03-17T15:08:41.435Z,39.81
2023-03-17T15:11:42.930Z,40.06
2023-03-17T15:14:28.188Z,39.32
2023-03-17T15:17:07.333Z,39.41
2023-03-17T15:19:45.355Z,39.76
2023-03-17T15:22:26.761Z,39.88
2023-03-17T15:25:31.569Z,39.35
2023-03-17T15:28:19.515Z,40.28
2023-03-17T15:30:56.854Z,39.87
2023-03-17T15:33:29.486Z,39.87
2023-03-17T15:36:03.062Z,39.52
2023-03-17T15:38:39.017Z,39.52
2023-03-17T15:41:11.596Z,39.39
2023-03-17T15:43:44.256Z,39.46
2023-03-17T15:46:27.210Z,39.50
2023-03-17T15:49:00.458Z,40.27
2023-03-17T15:51:33.084Z,39.17
2023-03-17T15:54:05.802Z,39.56
2023-03-17T15:56:39.688Z,39.41
2023-03-17T15:59:12.904Z,39.71
2023-03-17T16:01:45.862Z,40.08
2023-03-17T16:04:19.132Z,39.52
2023-03-17T16:06:51.724Z,40.63
2023-03-17T16:09:24.306Z,40.26
2023-03-17T16:11:58.080Z,39.81
2023-03-17T16:14:30.724Z,39.67
2023-03-17T16:17:04.375Z,40.29
2023-03-17T16:19:36.890Z,39.88
2023-03-17T16:22:41.808Z,39.80
2023-03-17T16:25:22.951Z,39.40
2023-03-17T16:28:00.265Z,39.52
2023-03-17T16:30:34.827Z,39.61
2023-03-17T16:33:30.887Z,40.02
2023-03-17T16:36:03.639Z,39.50
2023-03-17T16:38:36.756Z,40.15
2023-03-17T16:41:27.633Z,39.73
2023-03-17T16:44:02.805Z,39.87
2023-03-17T16:46:35.882Z,39.53
2023-03-17T16:49:08.527Z,39.65
2023-03-17T16:51:41.738Z,39.91
2023-03-17T16:54:15.325Z,39.99
2023-03-17T16:56:48.062Z,39.76
2023-03-17T16:59:24.397Z,40.33
2023-03-17T17:01:58.143Z,39.71
2023-03-17T17:04:31.210Z,39.66
2023-03-17T17:07:03.976Z,39.96
2023-03-17T17:09:36.569Z,39.60
2023-03-17T17:12:10.550Z,40.35
2023-03-17T17:14:43.227Z,39.66
2023-03-17T17:17:15.860Z,39.76
2023-03-17T17:19:48.529Z,40.31
2023-03-17T17:22:21.272Z,39.92
2023-03-17T17:24:53.797Z,39.80
2023-03-17T17:27:26.301Z,40.44
2023-03-17T17:29:59.026Z,40.29
2023-03-17T17:32:31.848Z,40.07
2023-03-17T17:35:06.552Z,40.38
2023-03-17T17:37:39.422Z,40.84
2023-03-17T17:40:17.163Z,40.45
2023-03-17T17:42:50.675Z,39.95
2023-03-17T17:45:24.011Z,40.03
2023-03-17T17:47:56.708Z,40.69
2023-03-17T17:50:31.278Z,39.98
2023-03-17T17:53:08.545Z,40.39
2023-03-17T17:55:44.285Z,39.97
2023-03-17T17:58:25.393Z,40.59
2023-03-17T18:00:58.607Z,41.05
2023-03-17T18:03:32.238Z,39.87
2023-03-17T18:06:05.604Z,39.98
2023-03-17T18:08:39.262Z,40.00
2023-03-17T18:11:12.319Z,40.62
2023-03-17T18:13:44.903Z,40.42
2023-03-17T18:16:19.800Z,40.88
2023-03-17T18:18:52.469Z,40.19
2023-03-17T18:21:25.071Z,40.62
2023-03-17T18:23:57.707Z,40.96
2023-03-17T18:26:30.881Z,41.04
2023-03-17T18:29:03.923Z,40.35
2023-03-17T18:31:48.706Z,40.82
2023-03-17T18:34:30.998Z,40.75
2023-03-17T18:37:04.378Z,40.42
2023-03-17T18:39:36.969Z,40.27
2023-03-17T18:42:09.737Z,40.42
2023-03-17T18:44:42.561Z,40.94
2023-03-17T18:47:16.336Z,40.21
2023-03-17T18:49:49.216Z,40.71
2023-03-17T18:52:22.266Z,40.50
2023-03-17T18:54:54.787Z,40.60
2023-03-17T18:57:27.919Z,40.61
2023-03-17T19:00:00.574Z,40.82
2023-03-17T19:02:35.872Z,40.70
2023-03-17T19:05:10.264Z,40.70
2023-03-17T19:07:42.927Z,41.04
2023-03-17T19:10:15.815Z,40.40
2023-03-17T19:12:48.492Z,41.12
2023-03-17T19:15:21.703Z,40.80
2023-03-17T19:17:54.263Z,41.25
2023-03-17T19:20:27.176Z,40.63
2023-03-17T19:23:00.970Z,40.49
2023-03-17T19:25:34.372Z,41.38
2023-03-17T19:28:07.434Z,40.11
2023-03-17T19:30:40.290Z,41.26
2023-03-17T19:33:15.439Z,40.81
2023-03-17T19:35:55.977Z,40.89
2023-03-17T19:38:28.832Z,40.86
2023-03-17T19:41:01.377Z,40.97
2023-03-17T19:43:40.864Z,40.80
2023-03-17T19:46:16.126Z,40.73
2023-03-17T19:48:48.887Z,40.92
2023-03-17T19:51:21.835Z,40.73
2023-03-17T19:53:55.560Z,40.73
2023-03-17T19:56:28.280Z,41.23
2023-03-17T19:59:01.195Z,41.43
2023-03-17T20:01:33.893Z,41.50
2023-03-17T20:04:07.286Z,40.85
2023-03-17T20:06:39.992Z,40.70
2023-03-17T20:09:13.979Z,41.11
2023-03-17T20:11:47.077Z,40.85
2023-03-17T20:14:20.890Z,41.29
2023-03-17T20:16:53.794Z,40.57
2023-03-17T20:19:26.429Z,41.39
2023-03-17T20:21:58.952Z,41.13
2023-03-17T20:24:31.949Z,41.53
2023-03-17T20:27:07.160Z,40.78
2023-03-17T20:29:39.697Z,41.41
2023-03-17T20:32:15.114Z,41.02
2023-03-17T20:34:48.838Z,41.22
2023-03-17T20:37:22.931Z,40.97
2023-03-17T20:39:57.379Z,41.08
2023-03-17T20:42:29.948Z,40.71
2023-03-17T20:45:03.547Z,40.52
2023-03-17T20:47:36.601Z,41.51
2023-03-17T20:50:10.043Z,40.70
2023-03-17T20:52:43.013Z,41.45
2023-03-17T20:55:17.423Z,41.14
2023-03-17T20:57:51.423Z,40.98
2023-03-17T21:00:24.603Z,41.83
2023-03-17T21:02:57.643Z,41.50
2023-03-17T21:05:32.308Z,41.68
2023-03-17T21:08:06.789Z,41.70
2023-03-17T21:10:39.456Z,40.88
2023-03-17T21:13:12.448Z,40.70
2023-03-17T21:15:45.370Z,41.39
2023-03-17T21:18:17.846Z,41.36
2023-03-17T21:20:51.803Z,41.46
2023-03-17T21:23:24.545Z,41.18
2023-03-17T21:25:57.696Z,41.49
2023-03-17T21:28:31.481Z,40.63
2023-03-17T21:31:04.939Z,41.73
2023-03-17T21:33:38.048Z,41.87
2023-03-17T21:36:11.355Z,41.54
2023-03-17T21:38:43.948Z,40.94
2023-03-17T21:41:33.094Z,41.67
2023-03-17T21:44:07.902Z,41.89
2023-03-17T21:46:40.499Z,41.27
2023-03-17T21:49:16.117Z,41.65
2023-03-17T21:51:48.840Z,41.48
2023-03-17T21:54:21.624Z,41.06
2023-03-17T21:56:54.206Z,41.53
2023-03-17T21:59:29.283Z,41.70
2023-03-17T22:02:03.726Z,42.00
2023-03-17T22:04:36.447Z,41.24
2023-03-17T22:07:13.381Z,41.83
2023-03-17T22:09:46.298Z,41.42
2023-03-17T22:12:19.581Z,41.50
2023-03-17T22:14:52.311Z,41.28
2023-03-17T22:17:26.020Z,41.54
2023-03-17T22:19:58.509Z,41.07
2023-03-17T22:22:31.282Z,41.52
2023-03-17T22:25:06.155Z,41.98
2023-03-17T22:27:38.739Z,41.72
2023-03-17T22:30:12.511Z,40.85
2023-03-17T22:32:45.752Z,41.30
2023-03-17T22:35:20.814Z,41.39
2023-03-17T22:37:53.366Z,41.61
2023-03-17T22:40:26.308Z,40.94
2023-03-17T22:42:59.632Z,41.79
2023-03-17T22:45:32.399Z,41.77
2023-03-17T22:48:05.095Z,42.24
2023-03-17T22:50:37.666Z,41.67
2023-03-17T22:53:10.339Z,41.48
2023-03-17T22:55:43.578Z,41.49
2023-03-17T22:58:16.207Z,41.50
2023-03-17T23:00:49.023Z,41.40
2023-03-17T23:03:23.561Z,41.82
2023-03-17T23:06:00.002Z,41.20
2023-03-17T23:08:36.175Z,41.88
2023-03-17T23:11:18.360Z,41.02
2023-03-17T23:13:52.748Z,42.19
2023-03-17T23:16:25.758Z,41.65
2023-03-17T23:18:58.380Z,42.09
2023-03-17T23:21:37.831Z,42.23
2023-03-17T23:24:10.655Z,41.42
2023-03-17T23:26:43.773Z,41.86
2023-03-17T23:29:22.745Z,41.90
2023-03-17T23:31:56.853Z,42.27
2023-03-17T23:34:29.841Z,41.02
2023-03-17T23:37:02.808Z,41.39
2023-03-17T23:39:35.504Z,41.06
2023-03-17T23:42:08.244Z,41.65
2023-03-17T23:44:41.832Z,41.35
2023-03-17T23:47:15.241Z,41.51
2023-03-17T23:49:47.981Z,41.32
2023-03-17T23:52:22.001Z,41.96
2023-03-17T23:54:54.686Z,41.84
2023-03-17T23:57:27.339Z,41.91
